createdAt,value
2019-03-15T00:00:27.407Z,1.90
2019-03-15T00:02:57.398Z,1.80
2019-03-15T00:05:27.375Z,1.80
2019-03-15T00:08:00.328Z,1.70
2019-03-15T00:10:31.194Z,1.70
2019-03-15T00:13:02.458Z,1.70
2019-03-15T00:15:32.549Z,1.70
2019-03-15T00:18:03.283Z,1.70
2019-03-15T00:20:36.962Z,1.70
2019-03-15T00:23:10.051Z,1.70
2019-03-15T00:25:43.355Z,1.70
2019-03-15T00:28:16.689Z,1.60
2019-03-15T00:30:49.059Z,1.70
2019-03-15T00:33:18.970Z,1.60
2019-03-15T00:35:50.274Z,1.60
2019-03-15T00:38:20.843Z,1.60
2019-03-15T00:40:53.663Z,1.50
2019-03-15T00:43:25.962Z,1.50
2019-03-15T00:46:00.876Z,1.40
2019-03-15T00:48:36.315Z,1.40
2019-03-15T00:51:09.763Z,1.30
2019-03-15T00:53:43.398Z,1.30
2019-03-15T00:56:17.154Z,1.30
2019-03-15T00:58:47.068Z,1.30
2019-03-15T01:01:18.211Z,1.20
2019-03-15T01:03:51.011Z,1.30
2019-03-15T01:06:24.748Z,1.30
2019-03-15T01:08:56.006Z,1.30
2019-03-15T01:11:26.509Z,1.20
2019-03-15T01:13:58.816Z,1.20
2019-03-15T01:16:35.780Z,1.10
2019-03-15T01:19:09.614Z,1.10
2019-03-15T01:21:46.936Z,1.00
2019-03-15T01:24:18.289Z,1.00
2019-03-15T01:26:51.487Z,0.90
2019-03-15T01:29:23.481Z,0.90
2019-03-15T01:31:54.017Z,0.80
2019-03-15T01:34:27.807Z,0.80
2019-03-15T01:37:02.564Z,0.90
2019-03-15T01:39:35.871Z,0.80
2019-03-15T01:42:08.613Z,0.80
2019-03-15T01:44:42.241Z,0.80
2019-03-15T01:47:15.188Z,0.80
2019-03-15T01:49:47.813Z,0.70
2019-03-15T01:52:21.032Z,0.70
2019-03-15T01:54:54.783Z,0.70
2019-03-15T01:57:28.553Z,0.70
2019-03-15T02:00:02.531Z,0.60
2019-03-15T02:02:37.538Z,0.70
2019-03-15T02:05:13.587Z,0.70
2019-03-15T02:07:46.625Z,0.60
2019-03-15T02:10:18.071Z,0.60
2019-03-15T02:12:48.127Z,0.60
2019-03-15T02:15:25.110Z,0.70
2019-03-15T02:17:56.911Z,0.60
2019-03-15T02:20:31.582Z,0.60
2019-03-15T02:23:04.162Z,0.60
2019-03-15T02:25:36.799Z,0.60
2019-03-15T02:28:10.482Z,0.60
2019-03-15T02:30:43.788Z,0.60
2019-03-15T02:33:16.504Z,0.60
2019-03-15T02:35:48.123Z,0.50
2019-03-15T02:38:21.639Z,0.50
2019-03-15T02:40:54.039Z,0.50
2019-03-15T02:43:24.831Z,0.50
2019-03-15T02:46:00.739Z,0.50
2019-03-15T02:48:34.476Z,0.50
2019-03-15T02:51:09.303Z,0.60
2019-03-15T02:53:42.086Z,0.60
2019-03-15T02:56:15.133Z,0.60
2019-03-15T02:58:47.109Z,0.60
2019-03-15T03:01:18.366Z,0.60
2019-03-15T03:03:51.007Z,0.60
2019-03-15T03:06:23.723Z,0.60
2019-03-15T03:08:56.391Z,0.60
2019-03-15T03:11:29.573Z,0.60
2019-03-15T03:14:01.864Z,0.60
2019-03-15T03:16:37.759Z,0.60
2019-03-15T03:19:10.531Z,0.60
2019-03-15T03:21:44.291Z,0.60
2019-03-15T03:24:17.024Z,0.70
2019-03-15T03:26:50.417Z,0.70
2019-03-15T03:29:24.734Z,0.70
2019-03-15T03:32:00.736Z,0.60
2019-03-15T03:34:33.624Z,0.70
2019-03-15T03:37:08.373Z,0.70
2019-03-15T03:39:41.348Z,0.70
2019-03-15T03:42:15.089Z,0.70
2019-03-15T03:44:48.935Z,0.70
2019-03-15T03:47:21.079Z,0.80
2019-03-15T03:49:53.983Z,0.80
2019-03-15T03:52:26.335Z,0.80
2019-03-15T03:54:59.330Z,0.80
2019-03-15T03:57:32.097Z,0.90
2019-03-15T04:00:04.795Z,0.90
2019-03-15T04:02:38.757Z,0.90
2019-03-15T04:05:13.764Z,0.90
2019-03-15T04:07:46.498Z,1.00
2019-03-15T04:10:20.203Z,1.00
2019-03-15T04:12:52.578Z,1.00
2019-03-15T04:15:26.344Z,1.00
2019-03-15T04:18:00.197Z,1.00
2019-03-15T04:20:33.370Z,1.00
2019-03-15T04:23:07.403Z,1.00
2019-03-15T04:25:41.311Z,1.00
2019-03-15T04:28:16.063Z,1.00
2019-03-15T04:30:47.743Z,1.10
2019-03-15T04:33:18.110Z,1.10
2019-03-15T04:35:48.731Z,1.10
2019-03-15T04:38:21.344Z,1.10
2019-03-15T04:40:55.038Z,1.10
2019-03-15T04:43:27.631Z,1.10
2019-03-15T04:46:00.355Z,1.20
2019-03-15T04:48:34.235Z,1.20
2019-03-15T04:51:09.475Z,1.20
2019-03-15T04:53:41.468Z,1.20
2019-03-15T04:56:13.152Z,1.30
2019-03-15T04:58:44.311Z,1.30
2019-03-15T05:01:17.857Z,1.30
2019-03-15T05:03:48.762Z,1.30
2019-03-15T05:06:19.327Z,1.30
2019-03-15T05:08:51.491Z,1.30
2019-03-15T05:11:24.222Z,1.30
2019-03-15T05:13:58.822Z,1.30
2019-03-15T05:16:32.514Z,1.30
2019-03-15T05:19:07.620Z,1.30
2019-03-15T05:21:40.326Z,1.30
2019-03-15T05:24:13.542Z,1.30
2019-03-15T05:26:47.211Z,1.30
2019-03-15T05:29:16.974Z,1.20
2019-03-15T05:31:50.310Z,1.20
2019-03-15T05:34:26.976Z,1.20
2019-03-15T05:37:00.830Z,1.20
2019-03-15T05:39:32.081Z,1.20
2019-03-15T05:42:07.177Z,1.20
2019-03-15T05:44:39.390Z,1.20
2019-03-15T05:47:12.511Z,1.20
2019-03-15T05:49:46.150Z,1.30
2019-03-15T05:52:20.241Z,1.30
2019-03-15T05:54:54.815Z,1.30
2019-03-15T05:57:28.480Z,1.30
2019-03-15T06:00:01.086Z,1.40
2019-03-15T06:02:34.271Z,1.40
2019-03-15T06:05:08.988Z,1.40
2019-03-15T06:07:42.083Z,1.40
2019-03-15T06:10:17.478Z,1.40
2019-03-15T06:12:48.531Z,1.40
2019-03-15T06:15:18.189Z,1.50
2019-03-15T06:17:49.427Z,1.50
2019-03-15T06:20:22.193Z,1.60
2019-03-15T06:22:58.179Z,1.70
2019-03-15T06:25:32.044Z,1.70
2019-03-15T06:28:07.199Z,1.70
2019-03-15T06:30:42.898Z,1.80
2019-03-15T06:33:16.109Z,1.80
2019-03-15T06:35:49.376Z,1.90
2019-03-15T06:38:23.983Z,1.90
2019-03-15T06:41:00.356Z,2.00
2019-03-15T06:43:32.486Z,2.10
2019-03-15T06:46:07.135Z,2.10
2019-03-15T06:48:40.854Z,2.20
2019-03-15T06:51:14.249Z,2.20
2019-03-15T06:53:48.107Z,2.30
2019-03-15T06:56:18.911Z,2.30
2019-03-15T06:58:48.786Z,2.30
2019-03-15T07:01:19.472Z,2.40
2019-03-15T07:03:50.243Z,2.50
2019-03-15T07:06:42.478Z,2.50
2019-03-15T07:09:16.994Z,2.50
2019-03-15T07:11:49.765Z,2.60
2019-03-15T07:14:22.880Z,2.60
2019-03-15T07:16:53.549Z,2.70
2019-03-15T07:19:27.485Z,2.70
2019-03-15T07:21:56.524Z,2.70
2019-03-15T07:24:27.273Z,2.70
2019-03-15T07:26:57.428Z,2.70
2019-03-15T07:29:28.463Z,2.60
2019-03-15T07:31:59.376Z,2.60
2019-03-15T07:34:32.775Z,2.60
2019-03-15T07:37:05.055Z,2.60
2019-03-15T07:39:38.311Z,2.70
2019-03-15T07:42:12.005Z,2.70
2019-03-15T07:44:48.930Z,2.90
2019-03-15T07:47:22.562Z,2.90
2019-03-15T07:49:54.498Z,3.00
2019-03-15T07:52:24.787Z,3.00
2019-03-15T07:54:55.439Z,3.10
2019-03-15T07:57:30.699Z,3.10
2019-03-15T08:00:03.724Z,3.10
2019-03-15T08:02:46.876Z,3.10
2019-03-15T08:05:39.564Z,3.20
2019-03-15T08:08:39.598Z,3.20
2019-03-15T08:11:14.379Z,3.30
2019-03-15T08:13:44.186Z,3.40
2019-03-15T08:16:14.939Z,3.40
2019-03-15T08:18:49.023Z,3.50
2019-03-15T08:21:22.881Z,3.50
2019-03-15T08:23:58.945Z,3.50
2019-03-15T08:26:33.353Z,3.60
2019-03-15T08:29:09.399Z,3.60
2019-03-15T08:31:47.069Z,3.70
2019-03-15T08:34:21.762Z,3.80
2019-03-15T08:37:04.034Z,3.90
2019-03-15T08:39:36.220Z,4.00
2019-03-15T08:42:10.273Z,3.90
2019-03-15T08:44:45.708Z,4.00
2019-03-15T08:47:25.120Z,4.10
2019-03-15T08:50:03.007Z,4.10
2019-03-15T08:52:35.055Z,4.10
2019-03-15T08:55:06.094Z,4.10
2019-03-15T08:57:39.010Z,4.10
2019-03-15T09:00:12.164Z,4.10
2019-03-15T09:02:43.674Z,4.20
2019-03-15T09:05:15.975Z,4.20
2019-03-15T09:07:49.078Z,4.20
2019-03-15T09:10:23.505Z,4.30
2019-03-15T09:12:55.754Z,4.30
2019-03-15T09:15:27.647Z,4.40
2019-03-15T09:18:00.351Z,4.50
2019-03-15T09:20:32.102Z,4.50
2019-03-15T09:23:05.862Z,4.60
2019-03-15T09:25:39.615Z,4.70
2019-03-15T09:28:14.271Z,4.80
2019-03-15T09:30:50.219Z,4.90
2019-03-15T09:33:21.575Z,4.90
2019-03-15T09:35:52.975Z,5.00
2019-03-15T09:38:33.025Z,5.00
2019-03-15T09:41:07.812Z,5.10
2019-03-15T09:43:45.093Z,5.20
2019-03-15T09:46:18.083Z,5.30
2019-03-15T09:48:48.479Z,5.40
2019-03-15T09:51:19.258Z,5.40
2019-03-15T09:53:50.312Z,5.50
2019-03-15T09:56:20.951Z,5.50
2019-03-15T09:58:57.270Z,5.60
2019-03-15T10:02:00.742Z,5.70
2019-03-15T10:05:10.767Z,5.70
2019-03-15T10:07:50.312Z,5.70
2019-03-15T10:10:23.479Z,5.80
2019-03-15T10:13:05.992Z,5.70
2019-03-15T10:15:31.484Z,5.70
2019-03-15T10:18:03.709Z,5.70
2019-03-15T10:20:38.366Z,5.70
2019-03-15T10:23:13.395Z,5.70
2019-03-15T10:25:49.779Z,5.70
2019-03-15T10:28:23.295Z,5.70
2019-03-15T10:30:59.752Z,5.70
2019-03-15T10:33:33.666Z,5.70
2019-03-15T10:36:09.344Z,5.80
2019-03-15T10:38:45.854Z,5.80
2019-03-15T10:41:20.362Z,5.80
2019-03-15T10:43:56.443Z,5.80
2019-03-15T10:46:30.015Z,5.80
2019-03-15T10:49:02.718Z,5.80
2019-03-15T10:51:39.361Z,5.80
2019-03-15T10:54:11.181Z,5.80
2019-03-15T10:56:42.246Z,5.90
2019-03-15T10:59:12.203Z,6.00
2019-03-15T11:01:44.835Z,6.00
2019-03-15T11:04:18.271Z,6.00
2019-03-15T11:06:51.871Z,6.00
2019-03-15T11:09:24.735Z,6.10
2019-03-15T11:11:56.703Z,6.10
2019-03-15T11:14:30.579Z,6.00
2019-03-15T11:17:05.476Z,6.00
2019-03-15T11:19:38.627Z,5.90
2019-03-15T11:22:11.899Z,5.90
2019-03-15T11:24:48.191Z,5.80
2019-03-15T11:27:20.991Z,5.80
2019-03-15T11:29:54.719Z,5.80
2019-03-15T11:32:29.347Z,5.90
2019-03-15T11:35:02.669Z,5.90
2019-03-15T11:37:35.821Z,5.90
2019-03-15T11:40:09.791Z,5.90
2019-03-15T11:42:42.002Z,5.90
2019-03-15T11:45:15.710Z,5.90
2019-03-15T11:48:02.919Z,5.80
2019-03-15T11:50:24.016Z,5.90
2019-03-15T11:52:54.351Z,5.90
2019-03-15T11:55:27.103Z,5.90
2019-03-15T11:58:00.275Z,5.90
2019-03-15T12:00:32.540Z,5.90
2019-03-15T12:03:06.054Z,6.00
2019-03-15T12:05:40.641Z,6.00
2019-03-15T12:08:12.876Z,6.00
2019-03-15T12:10:47.623Z,6.00
2019-03-15T12:13:21.247Z,6.00
2019-03-15T12:15:54.751Z,6.00
2019-03-15T12:18:27.289Z,6.00
2019-03-15T12:20:58.356Z,5.90
2019-03-15T12:23:28.011Z,6.00
2019-03-15T12:25:57.888Z,5.90
2019-03-15T12:28:28.046Z,6.00
2019-03-15T12:30:57.792Z,6.10
2019-03-15T12:33:27.854Z,6.10
2019-03-15T12:35:58.418Z,6.10
2019-03-15T12:38:30.563Z,6.10
2019-03-15T12:41:03.511Z,6.10
2019-03-15T12:43:38.144Z,6.10
2019-03-15T12:46:11.939Z,6.10
2019-03-15T12:48:41.992Z,6.10
2019-03-15T12:51:12.959Z,6.10
2019-03-15T12:53:46.667Z,6.20
2019-03-15T12:56:20.575Z,6.20
2019-03-15T12:58:57.399Z,6.20
2019-03-15T13:01:30.081Z,6.10
2019-03-15T13:04:02.002Z,6.00
2019-03-15T13:06:34.403Z,5.90
2019-03-15T13:09:09.381Z,5.80
2019-03-15T13:11:42.656Z,5.70
2019-03-15T13:14:17.415Z,5.60
2019-03-15T13:16:50.985Z,5.50
2019-03-15T13:19:26.455Z,5.50
2019-03-15T13:22:00.095Z,5.40
2019-03-15T13:24:34.209Z,5.30
2019-03-15T13:27:08.039Z,5.20
2019-03-15T13:29:42.497Z,5.10
2019-03-15T13:32:18.823Z,5.10
2019-03-15T13:34:51.553Z,5.00
2019-03-15T13:37:24.903Z,4.90
2019-03-15T13:39:56.991Z,4.90
2019-03-15T13:42:28.111Z,4.80
2019-03-15T13:44:59.763Z,4.70
2019-03-15T13:47:30.503Z,4.80
2019-03-15T13:50:01.612Z,4.80
2019-03-15T13:52:35.268Z,4.80
2019-03-15T13:55:09.023Z,4.80
2019-03-15T13:57:43.847Z,4.80
2019-03-15T14:00:16.091Z,4.80
2019-03-15T14:02:48.324Z,4.80
2019-03-15T14:05:34.567Z,4.80
2019-03-15T14:08:11.953Z,4.90
2019-03-15T14:10:49.198Z,4.90
2019-03-15T14:13:18.633Z,4.90
2019-03-15T14:15:52.415Z,5.00
2019-03-15T14:18:27.583Z,4.90
2019-03-15T14:21:00.574Z,4.90
2019-03-15T14:23:34.719Z,4.80
2019-03-15T14:26:09.567Z,4.80
2019-03-15T14:28:40.213Z,4.80
2019-03-15T14:31:11.214Z,4.70
2019-03-15T14:33:43.387Z,4.70
2019-03-15T14:36:16.641Z,4.70
2019-03-15T14:38:50.758Z,4.70
2019-03-15T14:41:24.031Z,4.70
2019-03-15T14:43:57.662Z,4.70
2019-03-15T14:46:33.406Z,4.70
2019-03-15T14:49:07.303Z,4.70
2019-03-15T14:51:39.575Z,4.70
2019-03-15T14:54:12.320Z,4.70
2019-03-15T14:56:47.687Z,4.70
2019-03-15T14:59:19.291Z,4.60
2019-03-15T15:01:52.757Z,4.60
2019-03-15T15:04:25.472Z,4.60
2019-03-15T15:06:59.427Z,4.60
2019-03-15T15:09:32.231Z,4.60
2019-03-15T15:12:07.775Z,4.50
2019-03-15T15:14:39.847Z,4.50
2019-03-15T15:17:10.775Z,4.50
2019-03-15T15:20:03.970Z,4.60
2019-03-15T15:22:37.695Z,4.60
2019-03-15T15:25:11.335Z,4.50
2019-03-15T15:27:47.007Z,4.50
2019-03-15T15:30:19.585Z,4.50
2019-03-15T15:32:54.367Z,4.40
2019-03-15T15:35:28.385Z,4.40
2019-03-15T15:38:02.179Z,4.40
2019-03-15T15:40:35.359Z,4.30
2019-03-15T15:43:09.087Z,4.30
2019-03-15T15:45:43.200Z,4.30
2019-03-15T15:48:16.421Z,4.20
2019-03-15T15:50:50.119Z,4.20
2019-03-15T15:53:23.003Z,4.10
2019-03-15T15:55:57.454Z,4.10
2019-03-15T15:58:30.503Z,4.10
2019-03-15T16:01:00.983Z,4.10
2019-03-15T16:03:33.123Z,4.10
2019-03-15T16:06:07.679Z,4.10
2019-03-15T16:08:41.481Z,4.10
2019-03-15T16:11:13.515Z,4.00
2019-03-15T16:13:43.842Z,4.00
2019-03-15T16:16:13.879Z,3.90
2019-03-15T16:18:46.239Z,3.90
2019-03-15T16:21:18.946Z,3.90
2019-03-15T16:23:52.414Z,3.90
2019-03-15T16:26:27.083Z,3.90
2019-03-15T16:29:00.550Z,3.90
2019-03-15T16:31:35.362Z,3.90
2019-03-15T16:34:14.369Z,3.90
2019-03-15T16:36:49.023Z,3.80
2019-03-15T16:39:25.559Z,3.80
2019-03-15T16:41:59.412Z,3.80
2019-03-15T16:44:29.595Z,3.80
2019-03-15T16:46:59.599Z,3.80
2019-03-15T16:49:30.290Z,3.80
2019-03-15T16:52:04.007Z,3.70
2019-03-15T16:54:39.559Z,3.70
2019-03-15T16:57:12.931Z,3.70
2019-03-15T16:59:45.823Z,3.70
2019-03-15T17:02:18.850Z,3.70
2019-03-15T17:04:52.735Z,3.70
2019-03-15T17:07:25.407Z,3.60
2019-03-15T17:09:58.175Z,3.60
2019-03-15T17:12:28.108Z,3.60
2019-03-15T17:15:01.728Z,3.60
2019-03-15T17:17:36.579Z,3.50
2019-03-15T17:20:10.015Z,3.50
2019-03-15T17:22:45.694Z,3.50
2019-03-15T17:25:17.955Z,3.50
2019-03-15T17:27:51.295Z,3.40
2019-03-15T17:30:26.346Z,3.50
2019-03-15T17:32:59.615Z,3.50
2019-03-15T17:35:30.647Z,3.40
2019-03-15T17:38:03.947Z,3.40
2019-03-15T17:40:37.599Z,3.40
2019-03-15T17:43:11.182Z,3.40
2019-03-15T17:45:44.703Z,3.40
2019-03-15T17:48:16.961Z,3.40
2019-03-15T17:50:51.082Z,3.40
2019-03-15T17:53:24.841Z,3.40
2019-03-15T17:56:00.366Z,3.30
2019-03-15T17:58:33.179Z,3.30
2019-03-15T18:01:08.012Z,3.30
2019-03-15T18:03:41.323Z,3.30
2019-03-15T18:06:13.066Z,3.30
2019-03-15T18:08:46.600Z,3.20
2019-03-15T18:11:18.979Z,3.30
2019-03-15T18:13:54.027Z,3.30
2019-03-15T18:16:27.559Z,3.30
2019-03-15T18:19:00.195Z,3.30
2019-03-15T18:21:32.831Z,3.30
2019-03-15T18:24:08.095Z,3.30
2019-03-15T18:26:43.391Z,3.20
2019-03-15T18:29:26.180Z,3.20
2019-03-15T18:31:53.896Z,3.20
2019-03-15T18:34:27.198Z,3.20
2019-03-15T18:37:02.174Z,3.20
2019-03-15T18:39:35.823Z,3.20
2019-03-15T18:42:08.542Z,3.20
2019-03-15T18:44:40.926Z,3.20
2019-03-15T18:47:14.718Z,3.20
2019-03-15T18:49:49.567Z,3.20
2019-03-15T18:52:22.532Z,3.10
2019-03-15T18:54:55.072Z,3.10
2019-03-15T18:57:27.263Z,3.10
2019-03-15T19:00:01.002Z,3.10
2019-03-15T19:05:06.049Z,3.10
2019-03-15T19:07:40.899Z,3.10
2019-03-15T19:10:14.270Z,3.10
2019-03-15T19:12:45.157Z,3.20
2019-03-15T19:15:18.755Z,3.10
2019-03-15T19:17:51.195Z,3.20
2019-03-15T19:20:25.859Z,3.20
2019-03-15T19:22:58.952Z,3.20
2019-03-15T19:25:34.605Z,3.20
2019-03-15T19:28:08.234Z,3.20
2019-03-15T19:30:44.131Z,3.20
2019-03-15T19:33:17.215Z,3.20
2019-03-15T19:35:49.860Z,3.10
2019-03-15T19:38:23.562Z,3.20
2019-03-15T19:40:59.062Z,3.20
2019-03-15T19:43:33.893Z,3.20
2019-03-15T19:46:07.711Z,3.20
2019-03-15T19:48:42.230Z,3.20
2019-03-15T19:51:16.718Z,3.20
2019-03-15T19:53:50.848Z,3.20
2019-03-15T19:56:23.335Z,3.20
2019-03-15T19:58:55.649Z,3.20
2019-03-15T20:01:29.162Z,3.20
2019-03-15T20:03:58.990Z,3.20
2019-03-15T20:06:32.996Z,3.10
2019-03-15T20:09:08.992Z,3.10
2019-03-15T20:11:44.235Z,3.10
2019-03-15T20:14:16.966Z,3.10
2019-03-15T20:16:47.563Z,3.10
2019-03-15T20:19:20.283Z,3.10
2019-03-15T20:21:51.739Z,3.10
2019-03-15T20:24:24.736Z,3.10
2019-03-15T20:26:57.823Z,3.10
2019-03-15T20:29:29.767Z,3.10
2019-03-15T20:32:05.831Z,3.10
2019-03-15T20:34:39.023Z,3.10
2019-03-15T20:37:11.807Z,3.10
2019-03-15T20:39:45.922Z,3.10
2019-03-15T20:42:19.685Z,3.00
2019-03-15T20:44:52.480Z,3.00
2019-03-15T20:47:26.021Z,3.00
2019-03-15T20:49:56.163Z,2.90
2019-03-15T20:52:29.552Z,2.90
2019-03-15T20:54:59.847Z,2.90
2019-03-15T20:57:29.807Z,2.90
2019-03-15T21:00:03.688Z,2.90
2019-03-15T21:02:36.972Z,2.80
2019-03-15T21:05:11.329Z,2.90
2019-03-15T21:07:44.179Z,2.90
2019-03-15T21:10:17.216Z,2.90
2019-03-15T21:12:49.922Z,2.90
2019-03-15T21:15:20.223Z,2.90
2019-03-15T21:17:53.886Z,2.80
2019-03-15T21:20:27.935Z,2.80
2019-03-15T21:23:03.870Z,2.80
2019-03-15T21:25:37.716Z,2.80
2019-03-15T21:28:13.419Z,2.80
2019-03-15T21:30:48.931Z,2.80
2019-03-15T21:33:20.924Z,2.70
2019-03-15T21:35:54.815Z,2.70
2019-03-15T21:38:30.691Z,2.70
2019-03-15T21:41:06.178Z,2.80
2019-03-15T21:43:41.217Z,2.80
2019-03-15T21:46:15.945Z,2.70
2019-03-15T21:48:46.564Z,2.70
2019-03-15T21:51:19.472Z,2.70
2019-03-15T21:53:54.883Z,2.70
2019-03-15T21:56:28.824Z,2.70
2019-03-15T21:58:59.183Z,2.60
2019-03-15T22:01:32.067Z,2.60
2019-03-15T22:04:08.225Z,2.60
2019-03-15T22:06:42.055Z,2.60
2019-03-15T22:09:15.338Z,2.50
2019-03-15T22:11:48.965Z,2.50
2019-03-15T22:14:19.673Z,2.50
2019-03-15T22:16:52.814Z,2.50
2019-03-15T22:19:27.703Z,2.40
2019-03-15T22:22:02.532Z,2.30
2019-03-15T22:24:36.353Z,2.30
2019-03-15T22:27:08.851Z,2.20
2019-03-15T22:29:52.924Z,2.20
2019-03-15T22:32:19.912Z,2.10
2019-03-15T22:34:53.696Z,2.10
2019-03-15T22:37:26.638Z,2.10
2019-03-15T22:39:59.638Z,2.10
2019-03-15T22:42:35.215Z,2.10
2019-03-15T22:45:10.190Z,2.00
2019-03-15T22:47:43.552Z,2.00
2019-03-15T22:50:17.475Z,1.90
2019-03-15T22:52:52.283Z,1.90
2019-03-15T22:55:27.521Z,1.90
2019-03-15T22:58:01.188Z,1.80
2019-03-15T23:00:40.799Z,1.80
2019-03-15T23:03:10.952Z,1.80
2019-03-15T23:05:41.874Z,1.80
2019-03-15T23:08:16.031Z,1.70
2019-03-15T23:10:50.217Z,1.70
2019-03-15T23:13:22.563Z,1.80
2019-03-15T23:15:55.376Z,1.80
2019-03-15T23:18:29.054Z,1.70
2019-03-15T23:21:03.099Z,1.80
2019-03-15T23:23:35.752Z,1.80
2019-03-15T23:26:06.848Z,1.80
2019-03-15T23:28:39.742Z,1.80
2019-03-15T23:31:13.802Z,1.80
2019-03-15T23:33:50.847Z,1.80
2019-03-15T23:36:23.810Z,1.80
2019-03-15T23:38:58.560Z,1.80
2019-03-15T23:41:33.311Z,1.80
2019-03-15T23:44:06.023Z,1.80
2019-03-15T23:46:37.724Z,1.80
2019-03-15T23:49:08.400Z,1.80
2019-03-15T23:51:38.055Z,1.80
2019-03-15T23:54:13.119Z,1.80
2019-03-15T23:56:47.593Z,1.80
2019-03-15T23:59:22.503Z,1.80
